Погода Русско-Лютинона неделю

Ростовская область, Россия

21 - 27 мая
  • 21мая
    Сегодня
    +11°
    +27°
    Небольшая облачность
    ВремяПогодаТемператураВлажностьДавлениеВетер, м/сВероятность осадков
    00:00Ясно и безоблачно+13°C73 %760 мм2.4 м/с2 %
    03:00Ясно и безоблачно+13°C75 %761 мм1.3 м/с2 %
    06:00Ясно и безоблачно+13°C74 %761 мм1.9 м/с2 %
    09:00Практически безоблачно+22°C45 %762 мм2.0 м/с2 %
    12:00Практически безоблачно+25°C35 %762 мм2.6 м/с2 %
    15:00Небольшая облачность+26°C30 %761 мм2.2 м/с2 %
    18:00Практически безоблачно+25°C30 %760 мм1.7 м/с2 %
    21:00Ясно и безоблачно+19°C51 %761 мм1.6 м/с2 %
  • 22мая
    Среда
    +12°
    +28°
    Практически безоблачно
    ВремяПогодаТемператураВлажностьДавлениеВетер, м/сВероятность осадков
    00:00Ясно и безоблачно+14°C63 %760 мм2.4 м/с2 %
    03:00Ясно и безоблачно+12°C66 %760 мм2.0 м/с2 %
    06:00Ясно и безоблачно+13°C57 %760 мм2.7 м/с2 %
    09:00Ясно и безоблачно+24°C33 %761 мм3.1 м/с2 %
    12:00Ясно и безоблачно+27°C22 %760 мм4.3 м/с2 %
    15:00Практически безоблачно+28°C21 %759 мм4.0 м/с2 %
    18:00Ясно и безоблачно+26°C22 %758 мм3.9 м/с2 %
    21:00Ясно и безоблачно+19°C34 %759 мм2.8 м/с2 %
  • 23мая
    Четверг
    +14°
    +29°
    Ясно и безоблачно
    ВремяПогодаТемператураВлажностьДавлениеВетер, м/сВероятность осадков
    00:00Ясно и безоблачно+15°C42 %758 мм2.2 м/с2 %
    03:00Ясно и безоблачно+13°C51 %758 мм2.2 м/с2 %
    06:00Ясно и безоблачно+14°C51 %759 мм3.4 м/с2 %
    09:00Ясно и безоблачно+23°C39 %759 мм3.1 м/с2 %
    12:00Ясно и безоблачно+27°C26 %759 мм5.7 м/с2 %
    15:00Ясно и безоблачно+29°C22 %758 мм5.7 м/с4 %
    18:00Ясно и безоблачно+27°C25 %758 мм5.7 м/с8 %
    21:00Ясно и безоблачно+20°C46 %759 мм6.1 м/с2 %
  • 24мая
    Пятница
    +11°
    +26°
    Ясно и безоблачно
    ВремяПогодаТемператураВлажностьДавлениеВетер, м/сВероятность осадков
    00:00Ясно и безоблачно+18°C59 %760 мм5.6 м/с2 %
    03:00Ясно и безоблачно+16°C63 %760 мм6.5 м/с2 %
    06:00Ясно и безоблачно+15°C52 %762 мм7.8 м/с2 %
    09:00Ясно и безоблачно+20°C37 %763 мм8.3 м/с2 %
    12:00Ясно и безоблачно+24°C32 %763 мм8.6 м/с2 %
    15:00Ясно и безоблачно+25°C28 %763 мм8.1 м/с3 %
    18:00Ясно и безоблачно+23°C22 %763 мм8.1 м/с2 %
    21:00Ясно и безоблачно+18°C26 %764 мм7.0 м/с2 %
  • 25мая
    Суббота
    +11°
    +24°
    Ясно и безоблачно
    ВремяПогодаТемператураВлажностьДавлениеВетер, м/сВероятность осадков
    00:00Ясно и безоблачно+15°C28 %765 мм7.1 м/с2 %
    03:00Ясно и безоблачно+13°C32 %765 мм6.9 м/с2 %
    06:00Ясно и безоблачно+12°C36 %766 мм7.0 м/с2 %
    09:00Ясно и безоблачно+18°C31 %766 мм7.9 м/с2 %
    12:00Ясно и безоблачно+22°C22 %765 мм8.5 м/с2 %
    15:00Ясно и безоблачно+23°C19 %764 мм8.8 м/с2 %
    18:00Ясно и безоблачно+22°C21 %763 мм8.5 м/с2 %
    21:00Пасмурно, сплошная облачность+18°C21 %763 мм6.8 м/с2 %
Мы используем cookies
Соглашаюсь